createdAt,value
2024-03-01T00:01:59.534Z,17.65
2024-03-01T00:05:02.342Z,17.70
2024-03-01T00:08:06.047Z,17.70
2024-03-01T00:11:08.405Z,17.71
2024-03-01T00:14:11.088Z,17.68
2024-03-01T00:17:14.974Z,17.68
2024-03-01T00:20:18.083Z,17.68
2024-03-01T00:27:55.295Z,17.67
2024-03-01T00:30:57.576Z,17.67
2024-03-01T00:34:00.611Z,17.63
2024-03-01T00:37:02.823Z,17.63
2024-03-01T00:40:06.211Z,17.65
2024-03-01T00:43:08.538Z,17.64
2024-03-01T00:46:11.707Z,17.64
2024-03-01T00:49:14.835Z,17.60
2024-03-01T00:52:19.098Z,17.60
2024-03-01T00:55:21.667Z,17.63
2024-03-01T00:58:24.417Z,17.54
2024-03-01T01:01:26.692Z,17.61
2024-03-01T01:04:29.263Z,17.61
2024-03-01T01:07:31.583Z,16.86
2024-03-01T01:10:34.479Z,16.72
2024-03-01T01:13:36.817Z,17.04
2024-03-01T01:16:39.548Z,17.44
2024-03-01T01:19:41.812Z,17.48
2024-03-01T01:22:44.814Z,17.58
2024-03-01T01:25:47.167Z,17.55
2024-03-01T01:28:53.474Z,17.58
2024-03-01T01:31:55.651Z,17.55
2024-03-01T01:34:59.201Z,17.54
2024-03-01T01:38:02.654Z,17.57
2024-03-01T01:41:05.584Z,17.58
2024-03-01T01:44:10.269Z,17.58
2024-03-01T01:47:13.201Z,17.45
2024-03-01T01:50:17.975Z,17.54
2024-03-01T01:53:24.464Z,17.57
2024-03-01T01:56:30.305Z,17.57
2024-03-01T01:59:33.599Z,17.55
2024-03-01T02:02:35.865Z,17.58
2024-03-01T02:05:39.015Z,17.44
2024-03-01T02:08:41.983Z,17.54
2024-03-01T02:11:44.764Z,17.19
2024-03-01T02:14:47.041Z,17.27
2024-03-01T02:17:49.650Z,17.41
2024-03-01T02:21:09.246Z,17.53
2024-03-01T02:24:11.888Z,17.51
2024-03-01T02:27:14.240Z,17.54
2024-03-01T02:30:17.483Z,17.57
2024-03-01T02:33:20.819Z,17.54
2024-03-01T02:36:24.110Z,17.55
2024-03-01T02:39:27.481Z,17.47
2024-03-01T02:42:30.121Z,17.26
2024-03-01T02:45:32.601Z,17.40
2024-03-01T02:48:35.992Z,17.44
2024-03-01T02:51:42.373Z,17.50
2024-03-01T02:54:45.269Z,17.00
2024-03-01T02:57:57.416Z,17.34
2024-03-01T03:01:00.657Z,17.45
2024-03-01T03:04:03.407Z,17.48
2024-03-01T03:07:10.614Z,17.50
2024-03-01T03:10:16.328Z,17.33
2024-03-01T03:13:19.376Z,17.13
2024-03-01T03:16:22.623Z,16.87
2024-03-01T03:19:26.165Z,16.97
2024-03-01T03:22:28.870Z,16.66
2024-03-01T03:25:31.800Z,15.83
2024-03-01T03:28:34.275Z,17.20
2024-03-01T03:31:37.544Z,17.16
2024-03-01T03:34:39.761Z,16.66
2024-03-01T03:37:43.528Z,15.80
2024-03-01T03:40:46.293Z,15.12
2024-03-01T03:43:49.042Z,15.32
2024-03-01T03:46:52.108Z,15.49
2024-03-01T03:49:55.234Z,15.03
2024-03-01T03:52:58.013Z,14.46
2024-03-01T03:56:01.589Z,13.74
2024-03-01T03:59:03.911Z,13.32
2024-03-01T04:02:06.776Z,12.89
2024-03-01T04:05:09.628Z,10.91
2024-03-01T04:08:12.904Z,11.83
2024-03-01T04:11:16.037Z,11.43
2024-03-01T04:14:18.719Z,11.61
2024-03-01T04:17:22.908Z,14.14
2024-03-01T04:20:25.595Z,14.38
2024-03-01T04:23:28.311Z,15.06
2024-03-01T04:26:30.971Z,16.08
2024-03-01T04:29:33.234Z,15.64
2024-03-01T04:32:36.732Z,16.65
2024-03-01T04:35:39.275Z,16.97
2024-03-01T04:38:42.043Z,17.19
2024-03-01T04:41:44.252Z,17.26
2024-03-01T04:44:47.383Z,17.31
2024-03-01T04:47:51.172Z,17.37
2024-03-01T04:50:54.042Z,17.11
2024-03-01T04:53:57.543Z,17.14
2024-03-01T04:57:01.669Z,17.30
2024-03-01T05:00:05.514Z,17.33
2024-03-01T05:03:08.878Z,17.28
2024-03-01T05:06:11.754Z,17.31
2024-03-01T05:09:17.032Z,17.40
2024-03-01T05:12:20.184Z,17.38
2024-03-01T05:15:23.270Z,17.40
2024-03-01T05:18:25.585Z,17.38
2024-03-01T05:21:28.265Z,17.38
2024-03-01T05:24:30.382Z,17.38
2024-03-01T05:27:33.379Z,17.37
2024-03-01T05:30:49.442Z,17.40
2024-03-01T05:33:55.090Z,17.37
2024-03-01T05:36:58.660Z,17.34
2024-03-01T05:40:05.864Z,17.30
2024-03-01T05:43:08.186Z,17.31
2024-03-01T05:46:16.495Z,17.16
2024-03-01T05:49:19.363Z,17.11
2024-03-01T05:52:22.420Z,17.17
2024-03-01T05:55:25.921Z,17.23
2024-03-01T05:58:28.875Z,17.14
2024-03-01T06:01:31.407Z,17.09
2024-03-01T06:04:34.394Z,17.06
2024-03-01T06:07:37.465Z,16.99
2024-03-01T06:10:40.164Z,17.00
2024-03-01T06:13:42.564Z,17.04
2024-03-01T06:16:45.776Z,17.04
2024-03-01T06:19:47.992Z,17.09
2024-03-01T06:22:51.174Z,17.09
2024-03-01T06:25:53.418Z,17.17
2024-03-01T06:28:55.972Z,17.11
2024-03-01T06:31:58.314Z,17.20
2024-03-01T06:35:00.957Z,17.11
2024-03-01T06:38:05.554Z,17.16
2024-03-01T06:41:09.945Z,17.21
2024-03-01T06:44:12.575Z,17.13
2024-03-01T06:47:16.185Z,17.16
2024-03-01T06:50:22.460Z,17.16
2024-03-01T06:53:26.964Z,17.13
2024-03-01T06:56:30.433Z,17.11
2024-03-01T07:04:08.540Z,17.33
2024-03-01T07:07:12.317Z,17.28
2024-03-01T07:10:15.018Z,17.26
2024-03-01T07:13:17.609Z,17.35
2024-03-01T07:16:20.924Z,17.17
2024-03-01T07:19:24.302Z,17.24
2024-03-01T07:22:27.779Z,17.27
2024-03-01T07:25:30.086Z,17.20
2024-03-01T07:28:32.999Z,17.19
2024-03-01T07:31:35.718Z,17.21
2024-03-01T07:34:38.774Z,17.21
2024-03-01T07:37:41.339Z,17.00
2024-03-01T07:40:44.080Z,17.16
2024-03-01T07:43:46.544Z,17.13
2024-03-01T07:46:51.000Z,17.14
2024-03-01T07:49:53.109Z,17.21
2024-03-01T07:52:55.990Z,17.21
2024-03-01T07:55:58.617Z,16.82
2024-03-01T07:59:05.209Z,16.52
2024-03-01T08:02:10.514Z,16.25
2024-03-01T08:05:13.814Z,16.24
2024-03-01T08:08:37.173Z,15.94
2024-03-01T08:11:43.080Z,16.07
2024-03-01T08:14:46.084Z,15.60
2024-03-01T08:17:48.795Z,15.27
2024-03-01T08:20:56.988Z,14.65
2024-03-01T08:24:03.022Z,14.61
2024-03-01T08:27:09.042Z,15.26
2024-03-01T08:30:47.882Z,11.29
2024-03-01T08:33:59.738Z,10.10
2024-03-01T08:37:02.618Z,10.08
2024-03-01T08:40:29.936Z,9.93
2024-03-01T08:43:33.466Z,9.88
2024-03-01T08:46:36.505Z,9.95
2024-03-01T08:49:38.866Z,10.46
2024-03-01T08:52:41.782Z,10.57
2024-03-01T08:55:45.342Z,10.19
2024-03-01T08:58:50.138Z,10.93
2024-03-01T09:01:53.942Z,11.97
2024-03-01T09:04:58.035Z,11.96
2024-03-01T09:08:03.902Z,11.51
2024-03-01T09:11:08.262Z,11.15
2024-03-01T09:14:21.833Z,12.54
2024-03-01T09:17:25.135Z,12.85
2024-03-01T09:20:38.342Z,12.21
2024-03-01T09:23:40.863Z,14.45
2024-03-01T09:26:44.522Z,14.88
2024-03-01T09:29:48.482Z,15.94
2024-03-01T09:32:51.187Z,15.20
2024-03-01T09:35:54.550Z,16.66
2024-03-01T09:38:59.059Z,16.96
2024-03-01T09:42:16.075Z,17.37
2024-03-01T09:45:50.397Z,17.02
2024-03-01T09:49:12.044Z,17.24
2024-03-01T09:52:42.102Z,17.41
2024-03-01T09:56:01.653Z,17.67
2024-03-01T09:59:25.341Z,17.73
2024-03-01T10:02:55.946Z,16.59
2024-03-01T10:06:22.001Z,17.48
2024-03-01T10:09:24.577Z,17.43
2024-03-01T10:12:54.217Z,16.38
2024-03-01T10:16:25.920Z,15.74
2024-03-01T10:19:46.973Z,16.90
2024-03-01T10:23:08.640Z,14.44
2024-03-01T10:26:13.472Z,15.88
2024-03-01T10:29:37.723Z,17.04
2024-03-01T10:33:15.076Z,15.14
2024-03-01T10:36:28.883Z,14.31
2024-03-01T10:40:03.811Z,13.15
2024-03-01T10:43:22.244Z,13.59
2024-03-01T10:46:30.045Z,15.23
2024-03-01T10:49:38.295Z,15.36
2024-03-01T10:52:51.646Z,17.16
2024-03-01T10:56:06.360Z,17.78
2024-03-01T10:59:16.048Z,17.88
2024-03-01T11:02:25.679Z,18.06
2024-03-01T11:05:39.078Z,17.75
2024-03-01T11:09:04.713Z,17.81
2024-03-01T11:12:31.340Z,17.98
2024-03-01T11:15:35.921Z,17.99
2024-03-01T11:18:48.432Z,18.10
2024-03-01T11:22:06.752Z,17.98
2024-03-01T11:25:12.456Z,17.91
2024-03-01T11:28:19.348Z,17.94
2024-03-01T11:31:30.818Z,17.92
2024-03-01T11:34:53.698Z,18.06
2024-03-01T11:38:10.376Z,18.26
2024-03-01T11:41:49.443Z,18.18
2024-03-01T11:45:28.516Z,18.28
2024-03-01T11:48:42.585Z,18.25
2024-03-01T11:52:25.919Z,18.22
2024-03-01T12:03:33.584Z,18.43
2024-03-01T12:07:24.742Z,18.32
2024-03-01T12:10:46.362Z,18.40
2024-03-01T12:13:54.876Z,18.43
2024-03-01T12:17:37.993Z,18.42
2024-03-01T12:20:49.995Z,18.46
2024-03-01T12:24:20.159Z,18.43
2024-03-01T12:28:15.268Z,18.45
2024-03-01T12:31:51.573Z,18.45
2024-03-01T12:35:21.409Z,18.40
2024-03-01T12:38:35.420Z,18.42
2024-03-01T12:42:07.763Z,18.12
2024-03-01T12:45:45.829Z,18.29
2024-03-01T12:49:02.980Z,18.33
2024-03-01T12:52:35.283Z,18.29
2024-03-01T12:55:49.537Z,18.28
2024-03-01T12:59:05.442Z,18.46
2024-03-01T13:02:33.130Z,18.47
2024-03-01T13:05:42.684Z,18.49
2024-03-01T13:08:54.763Z,18.49
2024-03-01T13:12:06.993Z,18.50
2024-03-01T13:15:27.185Z,18.49
2024-03-01T13:18:45.467Z,18.50
2024-03-01T13:22:17.715Z,18.52
2024-03-01T13:25:30.183Z,18.50
2024-03-01T13:28:33.215Z,18.49
2024-03-01T13:32:02.376Z,18.47
2024-03-01T13:35:28.680Z,18.49
2024-03-01T13:38:49.372Z,18.50
2024-03-01T13:42:07.656Z,18.09
2024-03-01T13:45:14.218Z,17.71
2024-03-01T13:48:29.712Z,17.65
2024-03-01T13:51:32.683Z,17.88
2024-03-01T13:54:38.469Z,17.89
2024-03-01T14:02:16.646Z,18.10
2024-03-01T14:05:27.915Z,17.95
2024-03-01T14:08:30.679Z,17.98
2024-03-01T14:11:35.016Z,18.06
2024-03-01T14:14:37.863Z,18.46
2024-03-01T14:17:45.373Z,18.28
2024-03-01T14:20:48.974Z,18.53
2024-03-01T14:23:52.770Z,18.43
2024-03-01T14:26:55.849Z,17.35
2024-03-01T14:29:58.242Z,16.35
2024-03-01T14:33:15.669Z,16.11
2024-03-01T14:36:17.964Z,17.44
2024-03-01T14:39:30.506Z,17.75
2024-03-01T14:42:33.276Z,18.05
2024-03-01T14:45:40.337Z,17.37
2024-03-01T14:48:48.564Z,17.55
2024-03-01T14:51:53.251Z,16.92
2024-03-01T14:54:55.966Z,16.77
2024-03-01T14:57:58.687Z,17.13
2024-03-01T15:01:01.566Z,18.01
2024-03-01T15:04:04.451Z,18.21
2024-03-01T15:07:09.325Z,18.29
2024-03-01T15:10:19.440Z,18.29
2024-03-01T15:13:28.931Z,16.80
2024-03-01T15:16:31.874Z,15.98
2024-03-01T15:24:08.867Z,16.28
2024-03-01T15:27:12.733Z,17.70
2024-03-01T15:30:15.545Z,18.30
2024-03-01T15:33:18.534Z,17.81
2024-03-01T15:36:21.298Z,17.81
2024-03-01T15:39:23.755Z,16.66
2024-03-01T15:42:26.446Z,16.90
2024-03-01T15:45:28.851Z,17.68
2024-03-01T15:48:31.368Z,18.19
2024-03-01T15:51:33.651Z,18.39
2024-03-01T15:54:36.433Z,18.64
2024-03-01T15:57:40.493Z,18.21
2024-03-01T16:00:43.878Z,18.50
2024-03-01T16:03:47.687Z,16.94
2024-03-01T16:06:52.941Z,17.65
2024-03-01T16:09:55.491Z,17.98
2024-03-01T16:13:02.639Z,18.26
2024-03-01T16:16:07.727Z,13.66
2024-03-01T16:19:11.666Z,11.86
2024-03-01T16:22:15.668Z,12.71
2024-03-01T16:25:20.430Z,13.25
2024-03-01T16:28:24.568Z,13.23
2024-03-01T16:31:29.579Z,14.51
2024-03-01T16:34:33.181Z,15.80
2024-03-01T16:37:36.217Z,16.70
2024-03-01T16:40:38.465Z,16.93
2024-03-01T16:43:45.136Z,17.17
2024-03-01T16:46:47.666Z,17.67
2024-03-01T16:49:50.415Z,17.64
2024-03-01T16:52:55.821Z,17.48
2024-03-01T16:56:06.870Z,17.91
2024-03-01T16:59:09.393Z,17.98
2024-03-01T17:02:35.825Z,17.96
2024-03-01T17:05:45.635Z,18.15
2024-03-01T17:08:48.676Z,18.25
2024-03-01T17:11:56.911Z,18.40
2024-03-01T17:15:00.150Z,18.52
2024-03-01T17:18:03.251Z,18.50
2024-03-01T17:21:06.598Z,18.56
2024-03-01T17:24:09.169Z,18.56
2024-03-01T17:27:12.216Z,18.59
2024-03-01T17:30:15.011Z,18.60
2024-03-01T17:33:17.683Z,18.59
2024-03-01T17:36:21.075Z,18.59
2024-03-01T17:39:23.801Z,18.49
2024-03-01T17:42:26.108Z,18.56
2024-03-01T17:45:28.807Z,18.61
2024-03-01T17:48:31.104Z,18.16
2024-03-01T17:51:35.577Z,18.21
2024-03-01T17:54:38.822Z,18.13
2024-03-01T17:57:41.954Z,18.04
2024-03-01T18:00:44.296Z,18.02
2024-03-01T18:03:47.486Z,18.32
2024-03-01T18:06:49.922Z,18.01
2024-03-01T18:09:53.231Z,18.28
2024-03-01T18:12:56.422Z,18.36
2024-03-01T18:16:00.171Z,18.21
2024-03-01T18:19:03.269Z,18.37
2024-03-01T18:22:06.547Z,18.50
2024-03-01T18:25:09.225Z,18.70
2024-03-01T18:28:12.270Z,18.64
2024-03-01T18:31:16.334Z,18.61
2024-03-01T18:34:19.939Z,18.69
2024-03-01T18:37:22.894Z,18.77
2024-03-01T18:40:26.067Z,18.69
2024-03-01T18:43:28.567Z,18.69
2024-03-01T18:46:31.716Z,18.69
2024-03-01T18:49:41.478Z,18.56
2024-03-01T18:52:46.424Z,18.69
2024-03-01T18:55:49.252Z,18.59
2024-03-01T18:58:52.416Z,18.64
2024-03-01T19:01:58.170Z,18.73
2024-03-01T19:05:05.951Z,18.76
2024-03-01T19:08:09.808Z,18.80
2024-03-01T19:11:12.921Z,18.77
2024-03-01T19:14:16.856Z,18.63
2024-03-01T19:17:20.095Z,18.79
2024-03-01T19:20:22.865Z,18.66
2024-03-01T19:23:26.013Z,18.52
2024-03-01T19:26:29.754Z,18.52
2024-03-01T19:29:32.896Z,18.63
2024-03-01T19:32:35.477Z,18.67
2024-03-01T19:35:38.281Z,18.66
2024-03-01T19:38:40.716Z,18.66
2024-03-01T19:41:44.094Z,18.63
2024-03-01T19:44:46.585Z,18.59
2024-03-01T19:47:49.708Z,18.61
2024-03-01T19:50:52.191Z,18.64
2024-03-01T19:53:54.943Z,18.64
2024-03-01T19:56:57.896Z,18.67
2024-03-01T20:00:01.307Z,18.69
2024-03-01T20:03:04.344Z,18.69
2024-03-01T20:06:07.197Z,18.69
2024-03-01T20:09:09.877Z,18.70
2024-03-01T20:12:13.012Z,18.67
2024-03-01T20:15:15.469Z,18.69
2024-03-01T20:18:18.229Z,18.69
2024-03-01T20:21:23.774Z,18.70
2024-03-01T20:24:26.702Z,18.66
2024-03-01T20:27:29.420Z,18.63
2024-03-01T20:30:33.207Z,18.64
2024-03-01T20:33:35.996Z,18.64
2024-03-01T20:36:42.162Z,18.64
2024-03-01T20:39:44.522Z,18.64
2024-03-01T20:42:47.152Z,18.64
2024-03-01T20:45:49.836Z,18.69
2024-03-01T20:48:54.120Z,18.76
2024-03-01T20:51:56.453Z,18.80
2024-03-01T20:55:00.922Z,18.86
2024-03-01T20:58:03.290Z,18.87
2024-03-01T21:01:08.228Z,18.94
2024-03-01T21:04:11.785Z,18.90
2024-03-01T21:07:14.857Z,18.89
2024-03-01T21:10:17.799Z,18.90
2024-03-01T21:13:20.956Z,18.91
2024-03-01T21:16:23.276Z,19.00
2024-03-01T21:19:25.989Z,18.99
2024-03-01T21:25:34.118Z,19.04
2024-03-01T21:28:36.835Z,19.01
2024-03-01T21:31:40.194Z,18.99
2024-03-01T21:34:44.727Z,19.08
2024-03-01T21:37:47.223Z,19.10
2024-03-01T21:40:52.022Z,19.08
2024-03-01T21:43:56.560Z,19.07
2024-03-01T21:46:59.085Z,19.07
2024-03-01T21:50:01.733Z,19.08
2024-03-01T21:53:04.513Z,19.10
2024-03-01T21:56:07.731Z,19.12
2024-03-01T21:59:30.205Z,19.10
2024-03-01T22:02:32.895Z,19.12
2024-03-01T22:05:35.422Z,19.08
2024-03-01T22:08:38.205Z,19.06
2024-03-01T22:11:40.675Z,19.14
2024-03-01T22:14:43.478Z,19.11
2024-03-01T22:17:45.829Z,19.17
2024-03-01T22:20:48.786Z,18.80
2024-03-01T22:23:51.492Z,18.66
2024-03-01T22:26:54.435Z,18.59
2024-03-01T22:29:56.712Z,18.53
2024-03-01T22:33:00.183Z,18.55
2024-03-01T22:36:03.304Z,18.56
2024-03-01T22:39:06.110Z,18.49
2024-03-01T22:42:08.726Z,18.40
2024-03-01T22:45:11.991Z,18.42
2024-03-01T22:48:14.378Z,18.40
2024-03-01T22:51:18.388Z,18.40
2024-03-01T22:54:25.899Z,18.36
2024-03-01T22:57:39.002Z,18.33
2024-03-01T23:00:46.076Z,18.28
2024-03-01T23:03:49.525Z,18.28
2024-03-01T23:06:59.533Z,18.26
2024-03-01T23:10:05.904Z,18.15
2024-03-01T23:13:08.365Z,18.12
2024-03-01T23:16:10.833Z,18.15
2024-03-01T23:19:15.650Z,18.09
2024-03-01T23:22:22.334Z,18.12
2024-03-01T23:25:24.794Z,18.05
2024-03-01T23:28:27.669Z,18.09
2024-03-01T23:31:30.299Z,18.08
2024-03-01T23:34:33.410Z,18.09
2024-03-01T23:37:35.904Z,18.02
2024-03-01T23:40:38.532Z,18.02
2024-03-01T23:43:40.761Z,18.05
2024-03-01T23:46:43.396Z,18.08
2024-03-01T23:49:45.495Z,18.06
2024-03-01T23:52:48.128Z,18.08
2024-03-01T23:55:52.552Z,18.09
2024-03-01T23:58:55.281Z,17.96
